Impacts TAF Board INFO
FOR SITUATIONAL AWARENESS. NOT TO BE USED FOR FLIGHT PLANNING PURPOSES.
IDs:

KDTW - Detroit Metro/Wayne, MI, US

Issued at 2320 UTC 14 Dec 2017
Updated at 0245 UTC 15 Dec 2017
Potential Impact None Slight Moderate High
Time<<16/03Z 16/04Z 16/05Z 16/06Z 16/07Z 16/08Z 16/09Z 16/10Z 16/11Z 16/12Z 16/13Z 16/14Z 16/15Z
Type PRVL PRVL PRVL
VIS 5 5 5
CIG 25 25 25
Cover OVC OVC OVC
FltCat MVFR MVFR MVFR
WX -SHSN -SHSN -SHSN
WDir 270 270 270
WSpd 12 12 12
WGst -- -- --

Raw TAF
KDTW 142320Z 1500/1606 26007KT P6SM SCT200
  FM150400 23005KT P6SM OVC040
  FM151400 22010G18KT P6SM OVC035
  FM151800 23012G25KT 1 1/2SM -SHSN OVC015
  FM152300 27012KT 5SM -SHSN OVC025


METAR Board
Radar Display
Forecast Discussion

FOR SITUATIONAL AWARENESS. NOT TO BE USED FOR FLIGHT PLANNING PURPOSES.